sensor_id;sensor_type;location;lat;lon;timestamp;temperature;humidity
37204;DHT22;23098;48.054;10.636;2023-03-13T00:01:13;7.60;99.90
37204;DHT22;23098;48.054;10.636;2023-03-13T00:03:38;7.50;99.90
37204;DHT22;23098;48.054;10.636;2023-03-13T00:06:04;7.50;99.90
37204;DHT22;23098;48.054;10.636;2023-03-13T00:08:30;7.50;99.90
37204;DHT22;23098;48.054;10.636;2023-03-13T00:10:55;7.50;99.90
37204;DHT22;23098;48.054;10.636;2023-03-13T00:13:21;7.50;99.90
37204;DHT22;23098;48.054;10.636;2023-03-13T00:15:48;7.40;99.90
37204;DHT22;23098;48.054;10.636;2023-03-13T00:18:14;7.50;99.90
37204;DHT22;23098;48.054;10.636;2023-03-13T00:20:39;7.50;99.90
37204;DHT22;23098;48.054;10.636;2023-03-13T00:23:06;7.50;99.90
37204;DHT22;23098;48.054;10.636;2023-03-13T00:25:32;7.50;99.90
37204;DHT22;23098;48.054;10.636;2023-03-13T00:27:58;7.40;99.90
37204;DHT22;23098;48.054;10.636;2023-03-13T00:30:23;7.30;99.90
37204;DHT22;23098;48.054;10.636;2023-03-13T00:32:50;7.20;99.90
37204;DHT22;23098;48.054;10.636;2023-03-13T00:35:15;7.00;99.90
37204;DHT22;23098;48.054;10.636;2023-03-13T00:37:42;6.90;99.90
37204;DHT22;23098;48.054;10.636;2023-03-13T00:40:08;6.90;99.90
37204;DHT22;23098;48.054;10.636;2023-03-13T00:42:34;6.80;99.90
37204;DHT22;23098;48.054;10.636;2023-03-13T00:45:00;6.70;99.90
37204;DHT22;23098;48.054;10.636;2023-03-13T00:47:27;6.80;99.90
37204;DHT22;23098;48.054;10.636;2023-03-13T00:49:52;6.80;99.90
37204;DHT22;23098;48.054;10.636;2023-03-13T00:52:18;6.90;99.90
37204;DHT22;23098;48.054;10.636;2023-03-13T00:54:43;6.60;99.90
37204;DHT22;23098;48.054;10.636;2023-03-13T00:57:09;6.40;99.90
37204;DHT22;23098;48.054;10.636;2023-03-13T00:59:34;6.30;99.90
37204;DHT22;23098;48.054;10.636;2023-03-13T01:02:01;6.10;99.90
37204;DHT22;23098;48.054;10.636;2023-03-13T01:04:27;6.00;99.90
37204;DHT22;23098;48.054;10.636;2023-03-13T01:06:52;5.80;99.90
37204;DHT22;23098;48.054;10.636;2023-03-13T01:09:19;5.70;99.90
37204;DHT22;23098;48.054;10.636;2023-03-13T01:11:45;5.70;99.90
37204;DHT22;23098;48.054;10.636;2023-03-13T01:14:16;5.50;99.90
37204;DHT22;23098;48.054;10.636;2023-03-13T01:16:42;5.50;99.90
37204;DHT22;23098;48.054;10.636;2023-03-13T01:19:11;5.40;99.90
37204;DHT22;23098;48.054;10.636;2023-03-13T01:21:37;5.60;99.90
37204;DHT22;23098;48.054;10.636;2023-03-13T01:24:03;6.00;99.90
37204;DHT22;23098;48.054;10.636;2023-03-13T01:26:29;6.10;99.90
37204;DHT22;23098;48.054;10.636;2023-03-13T01:28:55;6.30;99.90
37204;DHT22;23098;48.054;10.636;2023-03-13T01:31:26;6.60;99.90
37204;DHT22;23098;48.054;10.636;2023-03-13T01:33:55;7.00;99.90
37204;DHT22;23098;48.054;10.636;2023-03-13T01:36:21;7.40;99.90
37204;DHT22;23098;48.054;10.636;2023-03-13T01:38:48;7.50;99.90
37204;DHT22;23098;48.054;10.636;2023-03-13T01:41:14;7.70;99.90
37204;DHT22;23098;48.054;10.636;2023-03-13T01:43:46;7.90;99.90
37204;DHT22;23098;48.054;10.636;2023-03-13T01:51:32;8.20;99.90
37204;DHT22;23098;48.054;10.636;2023-03-13T01:54:04;8.40;99.90
37204;DHT22;23098;48.054;10.636;2023-03-13T01:57:03;8.40;99.90
37204;DHT22;23098;48.054;10.636;2023-03-13T01:59:41;8.70;99.90
37204;DHT22;23098;48.054;10.636;2023-03-13T02:02:08;8.70;99.90
37204;DHT22;23098;48.054;10.636;2023-03-13T02:04:49;8.80;99.90
37204;DHT22;23098;48.054;10.636;2023-03-13T02:07:21;8.80;99.90
37204;DHT22;23098;48.054;10.636;2023-03-13T02:09:50;8.90;99.90
37204;DHT22;23098;48.054;10.636;2023-03-13T02:12:29;8.90;99.90
37204;DHT22;23098;48.054;10.636;2023-03-13T02:14:55;8.80;99.90
37204;DHT22;23098;48.054;10.636;2023-03-13T02:17:23;9.00;99.90
37204;DHT22;23098;48.054;10.636;2023-03-13T02:19:50;8.90;99.90
37204;DHT22;23098;48.054;10.636;2023-03-13T02:22:38;8.80;99.90
37204;DHT22;23098;48.054;10.636;2023-03-13T02:27:57;9.00;99.90
37204;DHT22;23098;48.054;10.636;2023-03-13T02:30:23;9.00;99.90
37204;DHT22;23098;48.054;10.636;2023-03-13T02:32:49;9.10;99.90
37204;DHT22;23098;48.054;10.636;2023-03-13T02:35:18;9.00;99.90
37204;DHT22;23098;48.054;10.636;2023-03-13T02:37:47;9.10;99.90
37204;DHT22;23098;48.054;10.636;2023-03-13T02:40:17;9.10;99.90
37204;DHT22;23098;48.054;10.636;2023-03-13T02:42:46;9.00;99.90
37204;DHT22;23098;48.054;10.636;2023-03-13T02:45:14;9.10;99.90
37204;DHT22;23098;48.054;10.636;2023-03-13T02:47:40;9.10;99.90
37204;DHT22;23098;48.054;10.636;2023-03-13T02:50:05;9.10;99.90
37204;DHT22;23098;48.054;10.636;2023-03-13T02:52:35;9.20;99.90
37204;DHT22;23098;48.054;10.636;2023-03-13T02:55:27;9.30;99.90
37204;DHT22;23098;48.054;10.636;2023-03-13T02:57:54;9.40;99.90
37204;DHT22;23098;48.054;10.636;2023-03-13T03:00:19;9.30;99.90
37204;DHT22;23098;48.054;10.636;2023-03-13T03:02:50;9.30;99.90
37204;DHT22;23098;48.054;10.636;2023-03-13T03:05:17;9.40;99.90
37204;DHT22;23098;48.054;10.636;2023-03-13T03:07:43;9.30;99.90
37204;DHT22;23098;48.054;10.636;2023-03-13T03:10:09;9.30;99.90
37204;DHT22;23098;48.054;10.636;2023-03-13T03:12:35;9.40;99.90
37204;DHT22;23098;48.054;10.636;2023-03-13T03:15:00;9.30;99.90
37204;DHT22;23098;48.054;10.636;2023-03-13T03:17:26;9.30;99.90
37204;DHT22;23098;48.054;10.636;2023-03-13T03:19:51;9.30;99.90
37204;DHT22;23098;48.054;10.636;2023-03-13T03:22:17;9.30;99.90
37204;DHT22;23098;48.054;10.636;2023-03-13T03:24:44;9.30;99.90
37204;DHT22;23098;48.054;10.636;2023-03-13T03:27:09;9.30;99.90
37204;DHT22;23098;48.054;10.636;2023-03-13T03:29:35;9.30;99.90
37204;DHT22;23098;48.054;10.636;2023-03-13T03:32:00;9.30;99.90
37204;DHT22;23098;48.054;10.636;2023-03-13T03:34:26;9.20;99.90
37204;DHT22;23098;48.054;10.636;2023-03-13T03:36:51;9.10;99.90
37204;DHT22;23098;48.054;10.636;2023-03-13T03:39:17;9.20;99.90
37204;DHT22;23098;48.054;10.636;2023-03-13T03:41:42;9.20;99.90
37204;DHT22;23098;48.054;10.636;2023-03-13T03:44:08;9.20;99.90
37204;DHT22;23098;48.054;10.636;2023-03-13T03:46:33;9.30;99.90
37204;DHT22;23098;48.054;10.636;2023-03-13T03:48:59;9.30;99.90
37204;DHT22;23098;48.054;10.636;2023-03-13T03:51:25;9.30;99.90
37204;DHT22;23098;48.054;10.636;2023-03-13T03:53:50;9.30;99.90
37204;DHT22;23098;48.054;10.636;2023-03-13T03:56:16;9.30;99.90
37204;DHT22;23098;48.054;10.636;2023-03-13T03:58:43;9.20;99.90
37204;DHT22;23098;48.054;10.636;2023-03-13T04:01:08;9.20;99.90
37204;DHT22;23098;48.054;10.636;2023-03-13T04:03:34;9.10;99.90
37204;DHT22;23098;48.054;10.636;2023-03-13T04:05:59;9.20;99.90
37204;DHT22;23098;48.054;10.636;2023-03-13T04:08:25;9.30;99.90
37204;DHT22;23098;48.054;10.636;2023-03-13T04:10:50;9.20;99.90
37204;DHT22;23098;48.054;10.636;2023-03-13T04:13:16;9.30;99.90
37204;DHT22;23098;48.054;10.636;2023-03-13T04:15:42;9.40;99.90
37204;DHT22;23098;48.054;10.636;2023-03-13T04:18:08;9.40;99.90
37204;DHT22;23098;48.054;10.636;2023-03-13T04:20:33;9.30;99.90
37204;DHT22;23098;48.054;10.636;2023-03-13T04:22:59;9.30;99.90
37204;DHT22;23098;48.054;10.636;2023-03-13T04:25:25;9.20;99.90
37204;DHT22;23098;48.054;10.636;2023-03-13T04:27:50;9.20;99.90
37204;DHT22;23098;48.054;10.636;2023-03-13T04:30:16;9.10;99.90
37204;DHT22;23098;48.054;10.636;2023-03-13T04:32:42;9.20;99.90
37204;DHT22;23098;48.054;10.636;2023-03-13T04:35:08;9.40;99.90
37204;DHT22;23098;48.054;10.636;2023-03-13T04:37:34;9.50;99.90
37204;DHT22;23098;48.054;10.636;2023-03-13T04:40:00;9.40;99.90
37204;DHT22;23098;48.054;10.636;2023-03-13T04:42:26;9.40;99.90
37204;DHT22;23098;48.054;10.636;2023-03-13T04:44:52;9.60;99.90
37204;DHT22;23098;48.054;10.636;2023-03-13T04:47:18;9.80;99.90
37204;DHT22;23098;48.054;10.636;2023-03-13T04:49:43;9.90;99.90
37204;DHT22;23098;48.054;10.636;2023-03-13T04:52:09;9.90;99.90
37204;DHT22;23098;48.054;10.636;2023-03-13T04:54:35;9.90;99.90
37204;DHT22;23098;48.054;10.636;2023-03-13T04:57:00;9.80;99.90
37204;DHT22;23098;48.054;10.636;2023-03-13T04:59:28;9.90;99.90
37204;DHT22;23098;48.054;10.636;2023-03-13T05:01:55;9.90;99.90
37204;DHT22;23098;48.054;10.636;2023-03-13T05:04:20;10.00;99.90
37204;DHT22;23098;48.054;10.636;2023-03-13T05:06:46;10.00;99.90
37204;DHT22;23098;48.054;10.636;2023-03-13T05:09:11;10.10;99.90
37204;DHT22;23098;48.054;10.636;2023-03-13T05:11:37;10.30;99.90
37204;DHT22;23098;48.054;10.636;2023-03-13T05:14:04;10.30;99.90
37204;DHT22;23098;48.054;10.636;2023-03-13T05:16:31;10.50;99.90
37204;DHT22;23098;48.054;10.636;2023-03-13T05:18:56;10.70;99.90
37204;DHT22;23098;48.054;10.636;2023-03-13T05:21:22;10.70;99.90
37204;DHT22;23098;48.054;10.636;2023-03-13T05:23:48;10.70;99.90
37204;DHT22;23098;48.054;10.636;2023-03-13T05:26:14;10.80;99.90
37204;DHT22;23098;48.054;10.636;2023-03-13T05:28:40;10.70;99.90
37204;DHT22;23098;48.054;10.636;2023-03-13T05:31:05;10.60;99.90
37204;DHT22;23098;48.054;10.636;2023-03-13T05:33:31;10.60;99.90
37204;DHT22;23098;48.054;10.636;2023-03-13T05:35:56;10.80;99.90
37204;DHT22;23098;48.054;10.636;2023-03-13T05:38:22;10.80;99.90
37204;DHT22;23098;48.054;10.636;2023-03-13T05:40:47;10.90;99.90
37204;DHT22;23098;48.054;10.636;2023-03-13T05:43:13;10.90;99.90
37204;DHT22;23098;48.054;10.636;2023-03-13T05:45:38;10.90;99.90
37204;DHT22;23098;48.054;10.636;2023-03-13T05:48:04;11.10;99.90
37204;DHT22;23098;48.054;10.636;2023-03-13T05:50:30;11.10;99.90
37204;DHT22;23098;48.054;10.636;2023-03-13T05:52:55;11.00;99.90
37204;DHT22;23098;48.054;10.636;2023-03-13T05:55:21;10.90;99.90
37204;DHT22;23098;48.054;10.636;2023-03-13T05:57:47;11.00;99.90
37204;DHT22;23098;48.054;10.636;2023-03-13T06:00:14;10.90;99.90
37204;DHT22;23098;48.054;10.636;2023-03-13T06:02:40;11.00;99.90
37204;DHT22;23098;48.054;10.636;2023-03-13T06:05:07;10.90;99.90
37204;DHT22;23098;48.054;10.636;2023-03-13T06:07:33;10.90;99.90
37204;DHT22;23098;48.054;10.636;2023-03-13T06:09:58;11.00;99.90
37204;DHT22;23098;48.054;10.636;2023-03-13T06:12:24;11.00;99.90
37204;DHT22;23098;48.054;10.636;2023-03-13T06:14:49;11.00;99.90
37204;DHT22;23098;48.054;10.636;2023-03-13T06:17:15;11.00;99.90
37204;DHT22;23098;48.054;10.636;2023-03-13T06:19:41;10.90;99.90
37204;DHT22;23098;48.054;10.636;2023-03-13T06:22:06;10.90;99.90
37204;DHT22;23098;48.054;10.636;2023-03-13T06:24:32;10.80;99.90
37204;DHT22;23098;48.054;10.636;2023-03-13T06:26:57;10.80;99.90
37204;DHT22;23098;48.054;10.636;2023-03-13T06:29:23;10.90;99.90
37204;DHT22;23098;48.054;10.636;2023-03-13T06:31:49;10.90;99.90
37204;DHT22;23098;48.054;10.636;2023-03-13T06:34:16;10.90;99.90
37204;DHT22;23098;48.054;10.636;2023-03-13T06:36:42;11.10;99.80
37204;DHT22;23098;48.054;10.636;2023-03-13T06:39:07;11.10;99.90
37204;DHT22;23098;48.054;10.636;2023-03-13T06:41:33;11.20;99.60
37204;DHT22;23098;48.054;10.636;2023-03-13T06:43:59;11.10;99.70
37204;DHT22;23098;48.054;10.636;2023-03-13T06:46:24;11.10;99.50
37204;DHT22;23098;48.054;10.636;2023-03-13T06:48:51;11.20;99.30
37204;DHT22;23098;48.054;10.636;2023-03-13T06:51:19;11.30;99.20
37204;DHT22;23098;48.054;10.636;2023-03-13T06:53:45;11.30;99.20
37204;DHT22;23098;48.054;10.636;2023-03-13T06:56:11;11.50;98.70
37204;DHT22;23098;48.054;10.636;2023-03-13T06:58:37;11.40;98.80
37204;DHT22;23098;48.054;10.636;2023-03-13T07:01:12;11.40;98.90
37204;DHT22;23098;48.054;10.636;2023-03-13T07:03:38;11.40;98.70
37204;DHT22;23098;48.054;10.636;2023-03-13T07:06:05;11.50;98.20
37204;DHT22;23098;48.054;10.636;2023-03-13T07:27:32;12.00;97.40
37204;DHT22;23098;48.054;10.636;2023-03-13T08:02:30;10.30;99.90
37204;DHT22;23098;48.054;10.636;2023-03-13T08:05:01;10.50;99.90
37204;DHT22;23098;48.054;10.636;2023-03-13T08:07:34;10.70;99.90
37204;DHT22;23098;48.054;10.636;2023-03-13T08:10:01;10.90;99.90
37204;DHT22;23098;48.054;10.636;2023-03-13T08:12:26;11.20;99.90
37204;DHT22;23098;48.054;10.636;2023-03-13T08:14:53;11.50;99.90
37204;DHT22;23098;48.054;10.636;2023-03-13T08:17:18;11.60;99.90
37204;DHT22;23098;48.054;10.636;2023-03-13T08:19:44;11.80;99.90
37204;DHT22;23098;48.054;10.636;2023-03-13T08:22:09;11.90;99.60
37204;DHT22;23098;48.054;10.636;2023-03-13T08:24:35;12.10;99.00
37204;DHT22;23098;48.054;10.636;2023-03-13T08:27:00;12.20;99.10
37204;DHT22;23098;48.054;10.636;2023-03-13T08:29:26;12.30;98.70
37204;DHT22;23098;48.054;10.636;2023-03-13T08:31:51;12.40;99.00
37204;DHT22;23098;48.054;10.636;2023-03-13T08:34:17;12.50;98.40
37204;DHT22;23098;48.054;10.636;2023-03-13T08:36:43;12.60;98.30
37204;DHT22;23098;48.054;10.636;2023-03-13T08:49:46;13.10;97.90
37204;DHT22;23098;48.054;10.636;2023-03-13T08:52:37;13.10;98.10
37204;DHT22;23098;48.054;10.636;2023-03-13T08:55:03;13.10;97.80
37204;DHT22;23098;48.054;10.636;2023-03-13T08:57:29;13.10;97.90
37204;DHT22;23098;48.054;10.636;2023-03-13T08:59:57;13.30;97.90
37204;DHT22;23098;48.054;10.636;2023-03-13T09:02:25;13.50;97.70
37204;DHT22;23098;48.054;10.636;2023-03-13T09:04:57;13.70;97.50
37204;DHT22;23098;48.054;10.636;2023-03-13T09:07:29;13.80;97.50
37204;DHT22;23098;48.054;10.636;2023-03-13T09:10:04;14.00;97.70
37204;DHT22;23098;48.054;10.636;2023-03-13T09:12:30;13.90;96.90
37204;DHT22;23098;48.054;10.636;2023-03-13T09:14:57;13.90;97.50
37204;DHT22;23098;48.054;10.636;2023-03-13T09:17:41;14.00;97.40
37204;DHT22;23098;48.054;10.636;2023-03-13T09:20:07;14.20;97.20
37204;DHT22;23098;48.054;10.636;2023-03-13T09:22:33;14.40;96.70
37204;DHT22;23098;48.054;10.636;2023-03-13T09:24:59;14.60;97.30
37204;DHT22;23098;48.054;10.636;2023-03-13T09:27:24;14.40;96.40
37204;DHT22;23098;48.054;10.636;2023-03-13T09:29:52;14.40;96.30
37204;DHT22;23098;48.054;10.636;2023-03-13T09:32:18;14.40;96.70
37204;DHT22;23098;48.054;10.636;2023-03-13T09:34:45;14.40;96.70
37204;DHT22;23098;48.054;10.636;2023-03-13T09:37:11;14.50;96.80
37204;DHT22;23098;48.054;10.636;2023-03-13T09:39:36;14.50;96.60
37204;DHT22;23098;48.054;10.636;2023-03-13T09:42:14;14.40;96.60
37204;DHT22;23098;48.054;10.636;2023-03-13T09:44:59;14.20;97.00
37204;DHT22;23098;48.054;10.636;2023-03-13T09:47:45;14.10;96.90
37204;DHT22;23098;48.054;10.636;2023-03-13T09:50:20;14.50;97.10
37204;DHT22;23098;48.054;10.636;2023-03-13T09:52:49;14.70;96.90
37204;DHT22;23098;48.054;10.636;2023-03-13T09:55:27;15.10;96.70
37204;DHT22;23098;48.054;10.636;2023-03-13T09:58:42;15.30;96.70
37204;DHT22;23098;48.054;10.636;2023-03-13T10:00:57;14.90;96.10
37204;DHT22;23098;48.054;10.636;2023-03-13T10:03:30;14.70;96.70
37204;DHT22;23098;48.054;10.636;2023-03-13T10:06:03;14.70;96.60
37204;DHT22;23098;48.054;10.636;2023-03-13T10:08:31;14.70;96.60
37204;DHT22;23098;48.054;10.636;2023-03-13T10:18:58;14.90;96.60
37204;DHT22;23098;48.054;10.636;2023-03-13T10:21:32;15.00;96.60
37204;DHT22;23098;48.054;10.636;2023-03-13T10:24:11;15.10;96.80
37204;DHT22;23098;48.054;10.636;2023-03-13T10:26:40;15.10;96.90
37204;DHT22;23098;48.054;10.636;2023-03-13T10:29:21;15.20;96.90
37204;DHT22;23098;48.054;10.636;2023-03-13T10:32:04;15.40;96.20
37204;DHT22;23098;48.054;10.636;2023-03-13T10:37:18;15.60;96.40
37204;DHT22;23098;48.054;10.636;2023-03-13T10:39:44;15.90;96.20
37204;DHT22;23098;48.054;10.636;2023-03-13T10:42:26;15.60;96.20
37204;DHT22;23098;48.054;10.636;2023-03-13T10:47:32;15.80;96.80
37204;DHT22;23098;48.054;10.636;2023-03-13T10:49:59;16.00;96.60
37204;DHT22;23098;48.054;10.636;2023-03-13T10:52:32;15.90;96.70
37204;DHT22;23098;48.054;10.636;2023-03-13T10:55:01;16.00;96.80
37204;DHT22;23098;48.054;10.636;2023-03-13T10:57:30;16.20;96.60
37204;DHT22;23098;48.054;10.636;2023-03-13T10:59:56;16.10;97.00
37204;DHT22;23098;48.054;10.636;2023-03-13T11:21:08;16.70;96.60
37204;DHT22;23098;48.054;10.636;2023-03-13T11:23:44;16.80;96.60
37204;DHT22;23098;48.054;10.636;2023-03-13T11:26:21;17.00;96.20
37204;DHT22;23098;48.054;10.636;2023-03-13T11:29:12;17.10;97.00
37204;DHT22;23098;48.054;10.636;2023-03-13T11:31:50;17.30;96.60
37204;DHT22;23098;48.054;10.636;2023-03-13T11:34:46;17.10;96.20
37204;DHT22;23098;48.054;10.636;2023-03-13T11:37:17;16.90;96.70
37204;DHT22;23098;48.054;10.636;2023-03-13T11:42:51;17.40;96.90
37204;DHT22;23098;48.054;10.636;2023-03-13T11:51:37;16.80;96.80
37204;DHT22;23098;48.054;10.636;2023-03-13T11:56:40;16.90;97.40
37204;DHT22;23098;48.054;10.636;2023-03-13T11:59:44;17.20;97.30
37204;DHT22;23098;48.054;10.636;2023-03-13T12:02:34;17.30;96.80
37204;DHT22;23098;48.054;10.636;2023-03-13T12:05:03;17.50;96.90
37204;DHT22;23098;48.054;10.636;2023-03-13T12:08:04;17.70;96.40
37204;DHT22;23098;48.054;10.636;2023-03-13T12:10:51;17.70;96.80
37204;DHT22;23098;48.054;10.636;2023-03-13T12:13:30;17.70;97.10
37204;DHT22;23098;48.054;10.636;2023-03-13T12:16:04;18.20;96.80
37204;DHT22;23098;48.054;10.636;2023-03-13T12:18:38;18.20;96.30
37204;DHT22;23098;48.054;10.636;2023-03-13T12:32:34;18.20;96.20
37204;DHT22;23098;48.054;10.636;2023-03-13T12:35:30;18.30;96.10
37204;DHT22;23098;48.054;10.636;2023-03-13T12:38:27;18.30;96.20
37204;DHT22;23098;48.054;10.636;2023-03-13T12:41:07;18.30;95.70
37204;DHT22;23098;48.054;10.636;2023-03-13T12:43:38;18.30;95.80
37204;DHT22;23098;48.054;10.636;2023-03-13T12:49:10;18.70;95.60
37204;DHT22;23098;48.054;10.636;2023-03-13T12:58:08;18.50;96.10
37204;DHT22;23098;48.054;10.636;2023-03-13T13:04:58;18.50;95.80
37204;DHT22;23098;48.054;10.636;2023-03-13T13:10:18;18.90;95.50
37204;DHT22;23098;48.054;10.636;2023-03-13T13:18:35;20.10;94.70
37204;DHT22;23098;48.054;10.636;2023-03-13T13:36:57;19.90;94.80
37204;DHT22;23098;48.054;10.636;2023-03-13T13:39:46;20.00;94.60
37204;DHT22;23098;48.054;10.636;2023-03-13T13:43:00;19.80;94.20
37204;DHT22;23098;48.054;10.636;2023-03-13T13:45:40;19.60;94.60
37204;DHT22;23098;48.054;10.636;2023-03-13T13:48:26;19.90;95.10
37204;DHT22;23098;48.054;10.636;2023-03-13T13:54:03;20.60;94.50
37204;DHT22;23098;48.054;10.636;2023-03-13T13:56:45;21.00;94.30
37204;DHT22;23098;48.054;10.636;2023-03-13T13:59:31;21.00;94.40
37204;DHT22;23098;48.054;10.636;2023-03-13T14:02:25;20.20;94.20
37204;DHT22;23098;48.054;10.636;2023-03-13T14:05:20;20.20;94.20
37204;DHT22;23098;48.054;10.636;2023-03-13T14:08:02;20.10;93.80
37204;DHT22;23098;48.054;10.636;2023-03-13T14:10:34;20.10;94.40
37204;DHT22;23098;48.054;10.636;2023-03-13T14:13:02;20.10;94.40
37204;DHT22;23098;48.054;10.636;2023-03-13T14:15:33;19.90;94.40
37204;DHT22;23098;48.054;10.636;2023-03-13T14:23:15;19.60;94.90
37204;DHT22;23098;48.054;10.636;2023-03-13T14:25:52;19.80;94.60
37204;DHT22;23098;48.054;10.636;2023-03-13T14:28:26;19.80;95.00
37204;DHT22;23098;48.054;10.636;2023-03-13T14:30:56;19.90;94.70
37204;DHT22;23098;48.054;10.636;2023-03-13T14:33:23;20.00;94.70
37204;DHT22;23098;48.054;10.636;2023-03-13T14:35:54;20.10;94.30
37204;DHT22;23098;48.054;10.636;2023-03-13T14:38:24;20.00;94.20
37204;DHT22;23098;48.054;10.636;2023-03-13T14:40:51;20.00;94.60
37204;DHT22;23098;48.054;10.636;2023-03-13T14:43:20;20.00;94.30
37204;DHT22;23098;48.054;10.636;2023-03-13T14:45:53;20.10;94.00
37204;DHT22;23098;48.054;10.636;2023-03-13T14:48:31;20.00;93.10
37204;DHT22;23098;48.054;10.636;2023-03-13T14:51:03;19.90;93.30
37204;DHT22;23098;48.054;10.636;2023-03-13T14:53:34;19.80;93.20
37204;DHT22;23098;48.054;10.636;2023-03-13T14:56:31;19.80;93.10
37204;DHT22;23098;48.054;10.636;2023-03-13T14:59:11;19.90;92.90
37204;DHT22;23098;48.054;10.636;2023-03-13T15:01:40;20.30;92.80
37204;DHT22;23098;48.054;10.636;2023-03-13T15:04:06;20.20;92.60
37204;DHT22;23098;48.054;10.636;2023-03-13T15:06:31;19.90;93.00
37204;DHT22;23098;48.054;10.636;2023-03-13T15:09:16;19.80;93.30
37204;DHT22;23098;48.054;10.636;2023-03-13T15:11:57;20.10;93.50
37204;DHT22;23098;48.054;10.636;2023-03-13T15:14:44;20.10;93.00
37204;DHT22;23098;48.054;10.636;2023-03-13T15:17:15;19.90;93.00
37204;DHT22;23098;48.054;10.636;2023-03-13T15:19:41;19.60;93.40
37204;DHT22;23098;48.054;10.636;2023-03-13T15:22:14;19.30;93.50
37204;DHT22;23098;48.054;10.636;2023-03-13T15:24:44;19.20;94.10
37204;DHT22;23098;48.054;10.636;2023-03-13T15:27:18;19.10;94.00
37204;DHT22;23098;48.054;10.636;2023-03-13T15:29:45;19.10;93.80
37204;DHT22;23098;48.054;10.636;2023-03-13T15:32:25;19.30;93.80
37204;DHT22;23098;48.054;10.636;2023-03-13T15:34:51;19.60;94.00
37204;DHT22;23098;48.054;10.636;2023-03-13T15:37:18;19.90;93.70
37204;DHT22;23098;48.054;10.636;2023-03-13T15:39:43;19.80;93.00
37204;DHT22;23098;48.054;10.636;2023-03-13T15:42:09;19.60;93.10
37204;DHT22;23098;48.054;10.636;2023-03-13T15:44:34;19.40;93.50
37204;DHT22;23098;48.054;10.636;2023-03-13T15:47:00;19.30;93.70
37204;DHT22;23098;48.054;10.636;2023-03-13T15:49:26;19.00;94.00
37204;DHT22;23098;48.054;10.636;2023-03-13T15:51:51;18.80;94.00
37204;DHT22;23098;48.054;10.636;2023-03-13T15:54:18;18.50;94.10
37204;DHT22;23098;48.054;10.636;2023-03-13T15:56:43;18.40;94.60
37204;DHT22;23098;48.054;10.636;2023-03-13T15:59:14;18.20;95.20
37204;DHT22;23098;48.054;10.636;2023-03-13T16:01:43;18.10;95.50
37204;DHT22;23098;48.054;10.636;2023-03-13T16:04:10;17.90;95.60
37204;DHT22;23098;48.054;10.636;2023-03-13T16:06:36;17.80;95.60
37204;DHT22;23098;48.054;10.636;2023-03-13T16:09:04;17.70;95.60
37204;DHT22;23098;48.054;10.636;2023-03-13T16:11:31;17.60;95.70
37204;DHT22;23098;48.054;10.636;2023-03-13T16:13:56;17.60;95.90
37204;DHT22;23098;48.054;10.636;2023-03-13T16:16:32;17.60;96.00
37204;DHT22;23098;48.054;10.636;2023-03-13T16:18:59;17.60;95.80
37204;DHT22;23098;48.054;10.636;2023-03-13T16:21:26;17.70;95.60
37204;DHT22;23098;48.054;10.636;2023-03-13T16:23:52;17.70;95.70
37204;DHT22;23098;48.054;10.636;2023-03-13T16:26:20;17.70;95.40
37204;DHT22;23098;48.054;10.636;2023-03-13T16:28:47;17.60;95.70
37204;DHT22;23098;48.054;10.636;2023-03-13T16:31:23;17.60;95.70
37204;DHT22;23098;48.054;10.636;2023-03-13T16:33:53;17.50;95.80
37204;DHT22;23098;48.054;10.636;2023-03-13T16:36:22;17.40;96.00
37204;DHT22;23098;48.054;10.636;2023-03-13T16:38:48;17.20;96.30
37204;DHT22;23098;48.054;10.636;2023-03-13T16:41:16;17.10;96.30
37204;DHT22;23098;48.054;10.636;2023-03-13T16:43:43;16.80;97.00
37204;DHT22;23098;48.054;10.636;2023-03-13T16:46:17;16.60;96.70
37204;DHT22;23098;48.054;10.636;2023-03-13T16:48:43;16.60;96.70
37204;DHT22;23098;48.054;10.636;2023-03-13T16:51:27;16.50;97.00
37204;DHT22;23098;48.054;10.636;2023-03-13T16:53:55;16.40;96.90
37204;DHT22;23098;48.054;10.636;2023-03-13T16:56:24;16.20;96.80
37204;DHT22;23098;48.054;10.636;2023-03-13T16:58:51;16.20;97.00
37204;DHT22;23098;48.054;10.636;2023-03-13T17:01:17;16.00;97.40
37204;DHT22;23098;48.054;10.636;2023-03-13T17:03:43;15.90;97.40
37204;DHT22;23098;48.054;10.636;2023-03-13T17:06:13;15.80;97.50
37204;DHT22;23098;48.054;10.636;2023-03-13T17:08:39;15.80;97.50
37204;DHT22;23098;48.054;10.636;2023-03-13T17:11:06;15.70;97.60
37204;DHT22;23098;48.054;10.636;2023-03-13T17:13:31;15.60;97.80
37204;DHT22;23098;48.054;10.636;2023-03-13T17:15:57;15.30;98.10
37204;DHT22;23098;48.054;10.636;2023-03-13T17:18:26;15.10;98.50
37204;DHT22;23098;48.054;10.636;2023-03-13T17:20:52;14.90;98.80
37204;DHT22;23098;48.054;10.636;2023-03-13T17:23:17;14.80;99.10
37204;DHT22;23098;48.054;10.636;2023-03-13T17:25:43;14.60;99.50
37204;DHT22;23098;48.054;10.636;2023-03-13T17:28:12;14.40;99.60
37204;DHT22;23098;48.054;10.636;2023-03-13T17:30:38;14.40;99.80
37204;DHT22;23098;48.054;10.636;2023-03-13T17:33:04;14.30;99.90
37204;DHT22;23098;48.054;10.636;2023-03-13T17:35:29;14.10;99.90
37204;DHT22;23098;48.054;10.636;2023-03-13T17:37:55;13.90;99.90
37204;DHT22;23098;48.054;10.636;2023-03-13T17:40:26;13.80;99.90
37204;DHT22;23098;48.054;10.636;2023-03-13T17:42:52;13.60;99.90
37204;DHT22;23098;48.054;10.636;2023-03-13T17:45:19;13.50;99.90
37204;DHT22;23098;48.054;10.636;2023-03-13T17:47:45;13.30;99.90
37204;DHT22;23098;48.054;10.636;2023-03-13T17:52:41;12.90;99.90
37204;DHT22;23098;48.054;10.636;2023-03-13T17:55:07;12.60;99.90
37204;DHT22;23098;48.054;10.636;2023-03-13T17:57:33;12.60;99.90
37204;DHT22;23098;48.054;10.636;2023-03-13T17:59:59;12.40;99.90
37204;DHT22;23098;48.054;10.636;2023-03-13T18:02:26;12.30;99.90
37204;DHT22;23098;48.054;10.636;2023-03-13T18:04:51;12.20;99.90
37204;DHT22;23098;48.054;10.636;2023-03-13T18:07:26;12.20;99.90
37204;DHT22;23098;48.054;10.636;2023-03-13T18:09:52;12.30;99.90
37204;DHT22;23098;48.054;10.636;2023-03-13T18:12:17;12.20;99.90
37204;DHT22;23098;48.054;10.636;2023-03-13T18:14:43;12.10;99.90
37204;DHT22;23098;48.054;10.636;2023-03-13T18:17:27;11.90;99.90
37204;DHT22;23098;48.054;10.636;2023-03-13T18:19:53;11.80;99.90
37204;DHT22;23098;48.054;10.636;2023-03-13T18:22:20;11.80;99.90
37204;DHT22;23098;48.054;10.636;2023-03-13T18:24:51;11.90;99.90
37204;DHT22;23098;48.054;10.636;2023-03-13T18:27:19;11.90;99.90
37204;DHT22;23098;48.054;10.636;2023-03-13T18:29:47;11.90;99.90